Time;durP1;ratioP1;P1;durP2;ratioP2;P2;SDS_P1;SDS_P2;PMS_P1;PMS_P2;Temp;Humidity;BMP_temperature;BMP_pressure;BME280_temperature;BME280_humidity;BME280_pressure;Samples;Min_cycle;Max_cycle;Signal;HPM_P1;HPM_P2
2021/06/19 00:02:00;;;;;;;9.73;8.25;;;19.80;99.90;;;;;;5103156;28;20683;-80
2021/06/19 00:04:27;;;;;;;10.38;7.97;;;19.80;99.90;;;;;;5101994;28;20279;-80
2021/06/19 00:06:55;;;;;;;8.80;7.10;;;19.80;99.90;;;;;;5103019;28;20200;-79
2021/06/19 00:09:22;;;;;;;8.10;7.30;;;19.80;99.90;;;;;;5102773;28;20218;-78
2021/06/19 00:11:48;;;;;;;8.32;7.07;;;19.80;99.90;;;;;;5083966;28;20204;-78
2021/06/19 00:14:17;;;;;;;8.75;7.85;;;19.80;99.90;;;;;;5091400;28;20251;-78
2021/06/19 00:16:44;;;;;;;9.32;7.65;;;19.80;99.90;;;;;;5104569;28;20200;-77
2021/06/19 00:19:10;;;;;;;10.00;7.63;;;19.80;99.90;;;;;;5104018;28;20592;-78
2021/06/19 00:21:37;;;;;;;9.20;8.13;;;19.80;99.90;;;;;;5103362;28;20212;-78
2021/06/19 00:24:05;;;;;;;12.48;8.32;;;19.80;99.90;;;;;;5103969;28;20231;-77
2021/06/19 00:26:31;;;;;;;9.00;7.95;;;19.80;99.90;;;;;;5100521;28;20242;-79
2021/06/19 00:28:58;;;;;;;9.25;8.35;;;19.80;99.90;;;;;;5086167;28;20564;-78
2021/06/19 00:31:26;;;;;;;11.93;9.48;;;19.80;99.90;;;;;;5103906;28;20903;-83
2021/06/19 00:33:53;;;;;;;11.07;8.52;;;19.80;99.90;;;;;;5103202;28;20204;-78
2021/06/19 00:36:20;;;;;;;11.77;8.98;;;19.80;99.90;;;;;;5102806;28;20204;-79
2021/06/19 00:38:47;;;;;;;9.55;8.52;;;19.80;99.90;;;;;;5083342;28;20292;-79
2021/06/19 00:41:13;;;;;;;9.25;8.32;;;19.80;99.90;;;;;;5082632;28;20192;-79
2021/06/19 00:43:40;;;;;;;12.63;9.52;;;19.80;99.90;;;;;;5083180;28;20235;-79
2021/06/19 00:46:07;;;;;;;8.90;7.97;;;19.80;99.90;;;;;;5082689;28;20212;-78
2021/06/19 00:48:35;;;;;;;9.70;8.50;;;19.80;99.90;;;;;;5082622;28;20273;-78
2021/06/19 00:51:02;;;;;;;11.68;8.35;;;19.80;99.90;;;;;;5084005;28;20216;-79
2021/06/19 00:53:29;;;;;;;11.45;8.98;;;19.80;99.90;;;;;;5083457;28;20205;-78
2021/06/19 00:55:56;;;;;;;10.00;8.93;;;19.80;99.90;;;;;;5082208;28;20305;-78
2021/06/19 00:58:23;;;;;;;9.80;8.77;;;19.80;99.90;;;;;;5083518;28;20990;-80
2021/06/19 01:00:50;;;;;;;14.55;10.90;;;19.80;99.90;;;;;;5082566;28;20199;-80
2021/06/19 01:03:17;;;;;;;12.38;11.10;;;19.80;99.90;;;;;;5082321;28;20251;-78
2021/06/19 01:05:46;;;;;;;13.82;12.55;;;19.80;99.90;;;;;;5082901;28;20639;-79
2021/06/19 01:08:13;;;;;;;15.57;13.68;;;19.80;99.90;;;;;;5099621;28;20268;-79
2021/06/19 01:10:39;;;;;;;18.45;15.95;;;19.80;99.90;;;;;;5103254;28;20204;-79
2021/06/19 01:13:07;;;;;;;23.00;18.88;;;19.80;99.90;;;;;;5096846;28;20232;-78
2021/06/19 01:15:34;;;;;;;20.52;17.90;;;19.80;99.90;;;;;;5102150;28;20680;-76
2021/06/19 01:18:01;;;;;;;22.45;19.77;;;19.80;99.90;;;;;;5103005;28;20693;-78
2021/06/19 01:20:29;;;;;;;26.88;20.77;;;19.70;99.90;;;;;;5102768;28;20235;-78
2021/06/19 01:22:57;;;;;;;32.70;23.90;;;19.70;99.90;;;;;;5099105;28;20230;-78
2021/06/19 01:25:27;;;;;;;30.40;25.00;;;19.70;99.90;;;;;;5082258;28;20391;-78
2021/06/19 01:27:55;;;;;;;42.47;31.85;;;19.70;99.90;;;;;;5086278;28;20199;-80
2021/06/19 01:30:25;;;;;;;46.50;32.42;;;19.60;99.90;;;;;;5102754;28;20200;-79
2021/06/19 01:32:53;;;;;;;47.72;32.33;;;19.60;99.90;;;;;;5093092;28;20200;-78
2021/06/19 01:35:21;;;;;;;49.80;34.08;;;19.50;99.90;;;;;;5082430;28;20204;-79
2021/06/19 01:37:49;;;;;;;50.63;33.38;;;19.50;99.90;;;;;;5082033;28;20204;-78
2021/06/19 01:40:18;;;;;;;44.72;33.72;;;19.40;99.90;;;;;;5082178;28;20205;-77
2021/06/19 01:42:50;;;;;;;46.25;31.73;;;19.40;99.90;;;;;;5081932;28;20220;-78
2021/06/19 01:45:18;;;;;;;44.33;32.30;;;19.30;99.90;;;;;;5092698;28;20203;-78
2021/06/19 01:47:46;;;;;;;45.70;34.10;;;19.20;99.90;;;;;;5102608;28;20727;-78
2021/06/19 01:50:16;;;;;;;47.65;34.67;;;19.10;99.90;;;;;;5101952;28;20200;-78
2021/06/19 01:52:43;;;;;;;50.95;36.55;;;18.90;99.90;;;;;;5102017;28;20192;-77
2021/06/19 01:55:11;;;;;;;50.85;38.67;;;18.80;99.90;;;;;;5102218;28;20227;-77
2021/06/19 01:57:38;;;;;;;45.72;34.08;;;18.80;99.90;;;;;;5102120;28;20200;-78
2021/06/19 02:00:09;;;;;;;31.80;26.90;;;18.80;99.90;;;;;;5102549;28;20600;-80
2021/06/19 02:02:38;;;;;;;38.47;30.55;;;18.70;99.90;;;;;;5102139;28;20220;-79
2021/06/19 02:05:06;;;;;;;41.28;32.70;;;18.60;99.90;;;;;;5081464;28;20201;-80
2021/06/19 02:07:33;;;;;;;40.00;32.58;;;18.50;99.90;;;;;;5094470;28;20215;-79
2021/06/19 02:10:00;;;;;;;43.05;34.25;;;18.50;99.90;;;;;;5102125;28;20204;-79
2021/06/19 02:12:27;;;;;;;45.20;34.60;;;18.50;99.90;;;;;;5102084;28;20557;-78
2021/06/19 02:14:54;;;;;;;31.60;27.73;;;18.50;99.90;;;;;;5101994;28;20204;-79
2021/06/19 02:17:22;;;;;;;33.72;27.85;;;18.40;99.90;;;;;;5087156;28;21085;-79
2021/06/19 02:19:48;;;;;;;34.72;29.55;;;18.40;99.90;;;;;;5081248;28;20208;-78
2021/06/19 02:22:15;;;;;;;38.30;32.65;;;18.40;99.90;;;;;;5081508;28;20193;-79
2021/06/19 02:24:42;;;;;;;38.88;31.35;;;18.40;99.90;;;;;;5099718;28;20216;-79
2021/06/19 02:27:11;;;;;;;33.95;27.30;;;18.30;99.90;;;;;;5102034;28;20792;-80
2021/06/19 02:29:38;;;;;;;32.33;25.63;;;18.20;99.90;;;;;;5105436;28;20298;-77
2021/06/19 02:32:06;;;;;;;39.00;31.15;;;18.20;99.90;;;;;;5105841;28;20203;-78
2021/06/19 02:34:35;;;;;;;31.90;28.45;;;18.20;99.90;;;;;;5096632;28;20196;-79
2021/06/19 02:37:02;;;;;;;34.83;27.25;;;18.20;99.90;;;;;;5105208;28;20594;-79
2021/06/19 02:39:29;;;;;;;33.72;27.90;;;18.10;99.90;;;;;;5105335;28;20208;-79
2021/06/19 02:41:56;;;;;;;40.78;29.73;;;18.10;99.90;;;;;;5103562;28;20187;-79
2021/06/19 02:44:23;;;;;;;36.75;30.77;;;18.10;99.90;;;;;;5085228;28;20228;-78
2021/06/19 02:46:51;;;;;;;29.52;23.90;;;18.10;99.90;;;;;;5085048;28;20220;-78
2021/06/19 02:49:18;;;;;;;24.58;21.73;;;18.00;99.90;;;;;;5085219;28;20342;-77
2021/06/19 02:51:46;;;;;;;22.83;20.38;;;18.00;99.90;;;;;;5084863;28;20197;-79
2021/06/19 02:54:13;;;;;;;24.48;20.38;;;17.90;99.90;;;;;;5084529;28;20651;-80
2021/06/19 02:56:39;;;;;;;25.60;20.63;;;17.90;99.90;;;;;;5086159;28;20816;-79
2021/06/19 02:59:06;;;;;;;26.73;21.48;;;17.80;99.90;;;;;;5085625;28;20671;-80
2021/06/19 03:01:33;;;;;;;25.08;19.65;;;17.80;99.90;;;;;;5084976;28;20185;-80
2021/06/19 03:04:00;;;;;;;23.80;20.33;;;17.70;99.90;;;;;;5086041;28;20243;-80
2021/06/19 03:06:27;;;;;;;23.58;21.05;;;17.70;99.90;;;;;;5087941;28;20200;-78
2021/06/19 03:08:55;;;;;;;25.60;22.40;;;17.60;99.90;;;;;;5091860;28;20196;-76
2021/06/19 03:11:22;;;;;;;25.10;22.48;;;17.70;99.90;;;;;;5110623;28;20196;-78
2021/06/19 03:13:48;;;;;;;24.77;21.85;;;17.60;99.90;;;;;;5116664;28;20224;-77
2021/06/19 03:16:15;;;;;;;29.10;25.05;;;17.60;99.90;;;;;;5122108;28;20208;-78
2021/06/19 03:18:42;;;;;;;31.63;26.80;;;17.60;99.90;;;;;;5116246;28;20226;-77
2021/06/19 03:21:09;;;;;;;29.33;26.10;;;17.60;99.90;;;;;;5105760;28;20210;-78
2021/06/19 03:23:36;;;;;;;25.70;20.95;;;17.60;99.90;;;;;;5095632;28;20239;-78
2021/06/19 03:26:04;;;;;;;21.95;19.63;;;17.60;99.90;;;;;;5088951;28;20199;-77
2021/06/19 03:28:31;;;;;;;27.98;23.83;;;17.60;99.90;;;;;;5085060;28;20205;-78
2021/06/19 03:30:58;;;;;;;30.58;26.65;;;17.60;99.90;;;;;;5085231;28;20204;-79
2021/06/19 03:33:24;;;;;;;31.38;27.63;;;17.50;99.90;;;;;;5085270;28;20189;-77
2021/06/19 03:35:51;;;;;;;32.22;27.25;;;17.50;99.90;;;;;;5092942;28;20211;-78
2021/06/19 03:38:18;;;;;;;28.45;25.30;;;17.50;99.90;;;;;;5104876;28;20756;-78
2021/06/19 03:40:45;;;;;;;29.27;25.52;;;17.50;99.90;;;;;;5091265;28;20216;-79
2021/06/19 03:43:13;;;;;;;24.83;22.23;;;17.50;99.90;;;;;;5083825;28;20221;-79
2021/06/19 03:45:40;;;;;;;27.10;23.55;;;17.50;99.90;;;;;;5084721;28;20193;-78
2021/06/19 03:48:08;;;;;;;28.08;24.17;;;17.40;99.90;;;;;;5084382;28;20211;-79
2021/06/19 03:50:36;;;;;;;24.15;19.58;;;17.40;99.90;;;;;;5099925;28;20421;-78
2021/06/19 03:53:04;;;;;;;26.27;22.08;;;17.50;99.90;;;;;;5104057;28;20414;-78
2021/06/19 03:55:31;;;;;;;23.40;20.58;;;17.50;99.90;;;;;;5083603;28;20224;-79
2021/06/19 03:58:00;;;;;;;25.83;21.98;;;17.40;99.90;;;;;;5086385;28;20766;-79
2021/06/19 04:00:29;;;;;;;25.50;21.17;;;17.40;99.90;;;;;;5104818;28;20203;-79
2021/06/19 04:02:56;;;;;;;22.35;18.08;;;17.40;99.90;;;;;;5104645;28;20204;-78
2021/06/19 04:05:23;;;;;;;22.65;18.52;;;17.40;99.90;;;;;;5087285;28;20891;-79
2021/06/19 04:07:50;;;;;;;20.02;16.88;;;17.40;99.90;;;;;;5084087;28;20212;-78
2021/06/19 04:10:18;;;;;;;20.40;16.95;;;17.40;99.90;;;;;;5097280;28;20207;-79
2021/06/19 04:12:45;;;;;;;20.90;16.25;;;17.40;99.90;;;;;;5103489;28;20250;-78
2021/06/19 04:15:13;;;;;;;24.23;16.70;;;17.40;99.90;;;;;;5104113;28;20196;-78
2021/06/19 04:17:42;;;;;;;20.83;15.98;;;17.40;99.90;;;;;;5084988;28;20220;-78
2021/06/19 04:20:11;;;;;;;17.85;15.13;;;17.30;99.90;;;;;;5083258;28;20247;-77
2021/06/19 04:22:38;;;;;;;21.17;15.90;;;17.30;99.90;;;;;;5084555;28;20460;-80
2021/06/19 04:25:06;;;;;;;21.52;16.13;;;17.30;99.90;;;;;;5085057;28;20232;-78
2021/06/19 04:27:39;;;;;;;21.52;16.75;;;17.30;99.90;;;;;;5103706;28;20196;-79
2021/06/19 04:30:10;;;;;;;21.02;16.85;;;17.30;99.90;;;;;;5103835;28;20250;-78
2021/06/19 04:32:37;;;;;;;21.63;17.85;;;17.20;99.90;;;;;;5104095;28;20214;-79
2021/06/19 04:35:07;;;;;;;20.20;17.50;;;17.20;99.90;;;;;;5104082;28;20199;-79
2021/06/19 04:37:34;;;;;;;19.13;16.60;;;17.20;99.90;;;;;;5104467;28;20596;-78
2021/06/19 04:40:06;;;;;;;23.90;18.05;;;17.30;99.90;;;;;;5093617;28;20216;-79
2021/06/19 04:42:37;;;;;;;21.45;17.08;;;17.30;99.90;;;;;;5085267;28;20201;-80
2021/06/19 04:45:05;;;;;;;18.00;15.55;;;17.30;99.90;;;;;;5104408;28;20319;-80
2021/06/19 04:47:34;;;;;;;20.38;15.48;;;17.30;99.90;;;;;;5103307;28;20203;-79
2021/06/19 04:50:01;;;;;;;19.05;15.27;;;17.30;99.90;;;;;;5098696;28;20200;-79
2021/06/19 04:52:32;;;;;;;19.45;14.70;;;17.40;99.90;;;;;;5083534;28;20572;-78
2021/06/19 04:54:59;;;;;;;24.08;18.30;;;17.40;99.90;;;;;;5082448;28;20212;-78
2021/06/19 04:57:27;;;;;;;20.00;15.95;;;17.40;99.90;;;;;;5083736;28;20208;-80
2021/06/19 04:59:54;;;;;;;23.92;19.10;;;17.40;99.90;;;;;;5083188;28;20207;-79
2021/06/19 05:02:21;;;;;;;24.65;17.20;;;17.50;99.90;;;;;;5083166;28;20255;-79
2021/06/19 05:04:47;;;;;;;22.10;17.73;;;17.50;99.90;;;;;;5082744;28;20228;-80
2021/06/19 05:07:14;;;;;;;23.33;17.15;;;17.60;99.90;;;;;;5083226;28;20220;-79
2021/06/19 05:09:43;;;;;;;19.80;14.98;;;17.60;99.90;;;;;;5082726;28;20211;-79
2021/06/19 05:12:11;;;;;;;16.77;13.80;;;17.50;99.90;;;;;;5098551;28;20296;-81
2021/06/19 05:14:38;;;;;;;14.60;10.65;;;17.50;99.90;;;;;;5102799;28;20231;-82
2021/06/19 05:17:05;;;;;;;14.18;9.80;;;17.50;99.90;;;;;;5092742;28;20204;-79
2021/06/19 05:19:32;;;;;;;10.88;9.52;;;17.50;99.90;;;;;;5083301;28;20200;-78
2021/06/19 05:21:58;;;;;;;11.98;8.90;;;17.50;99.90;;;;;;5082587;28;20197;-78
2021/06/19 05:24:25;;;;;;;11.80;9.45;;;17.50;99.90;;;;;;5083383;28;20220;-78
2021/06/19 05:26:54;;;;;;;12.75;9.32;;;17.60;99.90;;;;;;5083019;28;20212;-79
2021/06/19 05:29:20;;;;;;;11.88;9.10;;;17.60;99.90;;;;;;5082220;28;20196;-79
2021/06/19 05:31:47;;;;;;;13.27;10.90;;;17.60;99.90;;;;;;5100740;28;20207;-79
2021/06/19 05:34:14;;;;;;;11.05;9.75;;;17.60;99.90;;;;;;5103255;28;20195;-80
2021/06/19 05:36:41;;;;;;;11.93;10.35;;;17.60;99.90;;;;;;5103376;28;20211;-79
2021/06/19 05:39:08;;;;;;;9.98;8.85;;;17.60;99.90;;;;;;5103336;28;20195;-78
2021/06/19 05:41:35;;;;;;;13.38;10.38;;;17.50;99.90;;;;;;5102799;28;20215;-79
2021/06/19 05:44:07;;;;;;;11.35;9.70;;;17.50;99.90;;;;;;5102449;28;20276;-77
2021/06/19 05:46:34;;;;;;;10.00;8.80;;;17.50;99.90;;;;;;5103438;28;20220;-79
2021/06/19 05:49:01;;;;;;;9.50;8.65;;;17.50;99.90;;;;;;5103085;28;20798;-80
2021/06/19 05:51:28;;;;;;;13.07;8.95;;;17.50;99.90;;;;;;5103021;28;20196;-80
2021/06/19 05:53:55;;;;;;;10.00;8.35;;;17.50;99.90;;;;;;5093634;28;20204;-79
2021/06/19 05:56:22;;;;;;;10.40;8.43;;;17.50;99.90;;;;;;5082484;28;20231;-80
2021/06/19 05:58:48;;;;;;;8.40;6.82;;;17.50;99.90;;;;;;5083307;28;20212;-78
2021/06/19 06:01:16;;;;;;;7.07;6.20;;;17.60;99.90;;;;;;5083920;28;20201;-77
2021/06/19 06:03:43;;;;;;;8.13;6.80;;;17.60;99.90;;;;;;5086028;28;20207;-79
2021/06/19 06:06:10;;;;;;;10.05;7.88;;;17.60;99.90;;;;;;5095769;28;20208;-79
2021/06/19 06:08:37;;;;;;;9.57;8.25;;;17.60;99.90;;;;;;5086940;28;20223;-79
2021/06/19 06:11:04;;;;;;;12.85;9.48;;;17.60;99.90;;;;;;5086411;28;20204;-78
2021/06/19 06:13:31;;;;;;;9.05;8.10;;;17.60;99.90;;;;;;5086862;28;20232;-78
2021/06/19 06:15:58;;;;;;;12.43;8.40;;;17.60;99.90;;;;;;5086843;28;20197;-79
2021/06/19 06:18:27;;;;;;;9.40;8.48;;;17.70;99.90;;;;;;5086199;28;20212;-78
2021/06/19 06:20:54;;;;;;;10.25;9.07;;;17.70;99.90;;;;;;5087686;28;20200;-82
2021/06/19 06:23:23;;;;;;;12.73;8.93;;;17.70;99.90;;;;;;5089144;28;20578;-79
2021/06/19 06:25:50;;;;;;;7.63;6.82;;;17.70;99.90;;;;;;5106915;28;20721;-79
2021/06/19 06:28:16;;;;;;;6.80;6.20;;;17.80;99.90;;;;;;5107653;28;20219;-79
2021/06/19 06:30:44;;;;;;;8.23;6.15;;;17.80;99.90;;;;;;5106864;28;20204;-79
2021/06/19 06:33:10;;;;;;;7.93;5.88;;;17.80;99.90;;;;;;5105706;28;20211;-80
2021/06/19 06:35:38;;;;;;;6.13;5.53;;;17.70;99.90;;;;;;5106612;28;20930;-79
2021/06/19 06:38:06;;;;;;;10.10;6.78;;;17.70;99.90;;;;;;5105629;28;20208;-79
2021/06/19 06:40:32;;;;;;;7.30;6.55;;;17.70;99.90;;;;;;5105360;28;20188;-79
2021/06/19 06:42:59;;;;;;;10.63;8.68;;;17.80;99.90;;;;;;5106641;28;20200;-79
2021/06/19 06:45:26;;;;;;;19.88;14.23;;;17.80;99.90;;;;;;5105971;28;20319;-79
2021/06/19 06:47:53;;;;;;;23.50;17.50;;;17.80;99.90;;;;;;5105421;28;20576;-79
2021/06/19 06:50:20;;;;;;;32.63;22.77;;;17.70;99.90;;;;;;5106745;28;20200;-80
2021/06/19 06:52:48;;;;;;;36.67;23.05;;;17.70;99.90;;;;;;5105315;28;20212;-80
2021/06/19 06:55:15;;;;;;;33.67;22.20;;;17.60;99.90;;;;;;5105418;28;20220;-78
2021/06/19 06:57:42;;;;;;;28.15;20.67;;;17.60;99.90;;;;;;5106326;28;20199;-80
2021/06/19 07:00:10;;;;;;;20.58;15.25;;;17.50;99.90;;;;;;5105920;28;20208;-79
2021/06/19 07:02:40;;;;;;;18.83;11.05;;;17.40;99.90;;;;;;5086744;28;20212;-81
2021/06/19 07:05:08;;;;;;;9.90;8.90;;;17.40;99.90;;;;;;5085278;28;20647;-79
2021/06/19 07:07:36;;;;;;;12.73;9.27;;;17.40;99.90;;;;;;5086553;28;20608;-76
2021/06/19 07:10:04;;;;;;;16.50;7.05;;;17.50;99.90;;;;;;5087309;28;20200;-80
2021/06/19 07:12:31;;;;;;;17.55;8.27;;;17.50;99.90;;;;;;5088927;28;20203;-78
2021/06/19 07:14:58;;;;;;;11.88;7.70;;;17.50;99.90;;;;;;5087063;28;20229;-80
2021/06/19 07:21:04;;;;;;;14.02;7.35;;;17.60;99.90;;;;;;4909513;28;20512;-84
2021/06/19 07:23:30;;;;;;;13.18;6.20;;;17.70;99.90;;;;;;5028565;28;20216;-79
2021/06/19 07:26:00;;;;;;;15.95;6.25;;;17.80;99.90;;;;;;5108534;28;20224;-83
2021/06/19 07:28:26;;;;;;;17.08;6.68;;;17.70;99.90;;;;;;5108124;28;20299;-81
2021/06/19 07:30:53;;;;;;;15.60;5.43;;;17.80;99.90;;;;;;5107900;28;20210;-80
2021/06/19 07:33:20;;;;;;;10.80;6.25;;;18.00;99.90;;;;;;5107821;28;20265;-82
2021/06/19 07:35:47;;;;;;;13.15;5.50;;;18.10;99.90;;;;;;5108296;28;20308;-81
2021/06/19 07:38:43;;;;;;;15.20;6.95;;;18.20;99.90;;;;;;5041410;28;20995;-80
2021/06/19 07:41:11;;;;;;;9.40;5.03;;;18.30;99.90;;;;;;5107311;28;20218;-83
2021/06/19 07:43:39;;;;;;;10.23;5.68;;;18.40;99.90;;;;;;5108529;28;20199;-85
2021/06/19 07:46:06;;;;;;;10.07;4.78;;;18.60;99.90;;;;;;5109674;28;20263;-82
2021/06/19 07:48:33;;;;;;;5.82;3.47;;;18.80;99.90;;;;;;5110209;28;20199;-86
2021/06/19 07:51:00;;;;;;;7.45;4.03;;;19.00;99.90;;;;;;5108354;28;20613;-83
2021/06/19 07:53:27;;;;;;;8.02;3.97;;;19.40;99.90;;;;;;5109360;28;20192;-85
2021/06/19 07:55:54;;;;;;;6.30;3.45;;;19.70;99.90;;;;;;5108881;28;20220;-83
2021/06/19 07:58:22;;;;;;;4.68;3.00;;;19.80;99.90;;;;;;5111086;28;20200;-82
2021/06/19 08:00:49;;;;;;;6.13;3.92;;;19.80;99.90;;;;;;5110497;28;20413;-84
2021/06/19 08:03:16;;;;;;;9.82;3.35;;;19.60;99.90;;;;;;5110353;28;20203;-82
2021/06/19 08:05:42;;;;;;;4.18;2.72;;;19.60;99.90;;;;;;5111270;28;20821;-87
2021/06/19 08:08:09;;;;;;;4.45;2.80;;;19.60;99.90;;;;;;5109047;28;20211;-86
2021/06/19 08:10:36;;;;;;;5.25;2.58;;;19.70;99.90;;;;;;5091909;28;20204;-88
2021/06/19 08:13:03;;;;;;;5.43;2.40;;;19.70;99.90;;;;;;5088757;28;20239;-83
2021/06/19 08:15:33;;;;;;;4.72;2.45;;;19.50;99.90;;;;;;5109857;28;20203;-85
2021/06/19 08:18:00;;;;;;;3.30;2.00;;;19.40;99.90;;;;;;5107794;28;20200;-86
2021/06/19 08:20:28;;;;;;;3.67;2.00;;;19.30;99.90;;;;;;5110260;28;20560;-85
2021/06/19 08:22:55;;;;;;;1.85;1.52;;;19.20;99.90;;;;;;5109833;28;20751;-83
2021/06/19 08:25:21;;;;;;;4.68;2.20;;;19.20;99.90;;;;;;5110348;28;20228;-85
2021/06/19 08:27:48;;;;;;;2.83;1.80;;;19.00;99.90;;;;;;5111582;28;20210;-84
2021/06/19 08:30:16;;;;;;;6.20;2.20;;;18.90;99.90;;;;;;5109024;28;20211;-84
2021/06/19 08:32:44;;;;;;;3.55;1.73;;;18.80;99.90;;;;;;5094082;28;20196;-84
2021/06/19 08:35:12;;;;;;;3.50;1.95;;;18.70;99.90;;;;;;5089179;28;20200;-83
2021/06/19 08:37:38;;;;;;;4.82;2.58;;;18.60;99.90;;;;;;5088995;28;20866;-80
2021/06/19 08:40:07;;;;;;;11.75;3.38;;;18.60;99.90;;;;;;5087396;28;20204;-86
2021/06/19 08:42:33;;;;;;;10.80;3.75;;;18.50;99.90;;;;;;5103098;28;20208;-83
2021/06/19 08:45:01;;;;;;;8.70;3.97;;;18.50;99.90;;;;;;5106331;28;20224;-79
2021/06/19 08:47:34;;;;;;;9.10;3.10;;;18.40;99.90;;;;;;5085041;28;20213;-78
2021/06/19 08:50:06;;;;;;;11.75;4.15;;;18.40;99.90;;;;;;5085640;28;20201;-86
2021/06/19 08:52:35;;;;;;;11.45;5.18;;;18.40;99.90;;;;;;5086395;28;20868;-82
2021/06/19 08:55:02;;;;;;;14.82;5.35;;;18.30;99.90;;;;;;5084875;28;20224;-79
2021/06/19 08:57:28;;;;;;;14.27;5.10;;;18.20;99.90;;;;;;5084375;28;20572;-79
2021/06/19 08:59:55;;;;;;;9.80;4.30;;;18.20;99.90;;;;;;5091895;28;20207;-78
2021/06/19 09:02:22;;;;;;;9.63;4.20;;;18.30;99.90;;;;;;5104256;28;20204;-81
2021/06/19 09:04:56;;;;;;;6.72;3.60;;;18.20;99.90;;;;;;5103146;28;20222;-81
2021/06/19 09:07:42;;;;;;;7.53;4.05;;;18.20;99.90;;;;;;5092605;28;20212;-81
2021/06/19 09:10:21;;;;;;;8.45;4.00;;;18.30;99.90;;;;;;5084338;28;20204;-81
2021/06/19 09:13:02;;;;;;;9.35;3.95;;;18.40;99.90;;;;;;5087983;28;20246;-80
2021/06/19 09:15:31;;;;;;;6.38;3.42;;;18.40;99.90;;;;;;5104015;28;20211;-81
2021/06/19 09:18:03;;;;;;;7.20;4.07;;;18.50;99.90;;;;;;5103483;28;20208;-81
2021/06/19 09:20:34;;;;;;;13.40;4.97;;;18.60;99.90;;;;;;5104622;28;20211;-81
2021/06/19 09:23:07;;;;;;;8.07;5.18;;;18.60;99.90;;;;;;5103779;28;20235;-80
2021/06/19 09:25:34;;;;;;;7.82;3.85;;;18.50;99.90;;;;;;5096720;28;20217;-79
2021/06/19 09:28:01;;;;;;;6.07;3.25;;;18.50;99.90;;;;;;5082752;28;20534;-80
2021/06/19 09:30:30;;;;;;;3.33;2.60;;;18.50;99.90;;;;;;5103641;28;20549;-81
2021/06/19 09:32:59;;;;;;;4.00;2.70;;;18.50;99.90;;;;;;5103970;28;20295;-80
2021/06/19 09:35:29;;;;;;;3.42;2.53;;;18.50;99.90;;;;;;5103074;28;20199;-80
2021/06/19 09:37:58;;;;;;;4.93;2.42;;;18.50;99.90;;;;;;5098599;28;20348;-82
2021/06/19 09:40:29;;;;;;;4.20;2.70;;;18.40;99.90;;;;;;5088134;28;20200;-78
2021/06/19 09:43:14;;;;;;;2.92;2.42;;;18.50;99.90;;;;;;5086741;28;20196;-82
2021/06/19 09:45:46;;;;;;;3.20;2.90;;;18.50;99.90;;;;;;5088039;28;20220;-80
2021/06/19 09:48:27;;;;;;;2.58;2.38;;;18.50;99.90;;;;;;5086910;28;20197;-80
2021/06/19 09:51:17;;;;;;;2.45;2.00;;;18.50;99.90;;;;;;5093029;28;20218;-81
2021/06/19 09:53:47;;;;;;;4.10;2.42;;;18.50;99.90;;;;;;5108109;28;20203;-82
2021/06/19 09:56:16;;;;;;;5.05;2.53;;;18.50;99.90;;;;;;5107190;28;20231;-81
2021/06/19 09:58:44;;;;;;;4.20;3.03;;;18.60;99.90;;;;;;5107674;28;20207;-83
2021/06/19 10:01:16;;;;;;;4.78;3.15;;;18.60;99.90;;;;;;5107617;28;20310;-81
2021/06/19 10:03:50;;;;;;;3.17;2.88;;;18.70;99.90;;;;;;5106674;28;20218;-82
2021/06/19 10:06:17;;;;;;;4.55;2.80;;;18.70;99.90;;;;;;5108526;28;20272;-82
2021/06/19 10:08:45;;;;;;;2.90;2.70;;;18.80;99.90;;;;;;5106839;28;20211;-82
2021/06/19 10:11:13;;;;;;;2.58;2.28;;;18.90;99.90;;;;;;5106274;28;20207;-82
2021/06/19 10:13:42;;;;;;;3.22;2.40;;;18.90;99.90;;;;;;5106225;28;20332;-81
2021/06/19 10:16:11;;;;;;;2.65;2.40;;;18.90;99.90;;;;;;5107043;28;20222;-80
2021/06/19 10:18:39;;;;;;;2.90;2.60;;;19.00;99.90;;;;;;5107036;28;20200;-80
2021/06/19 10:21:06;;;;;;;2.42;2.03;;;19.00;99.90;;;;;;5106327;28;20199;-82
2021/06/19 10:23:34;;;;;;;2.85;2.33;;;18.90;99.90;;;;;;5106650;28;20204;-82
2021/06/19 10:26:01;;;;;;;3.63;2.25;;;19.00;99.90;;;;;;5085555;28;20232;-81
2021/06/19 10:28:30;;;;;;;2.95;2.60;;;18.90;99.90;;;;;;5090490;28;20207;-82
2021/06/19 10:30:59;;;;;;;3.20;2.28;;;18.90;99.90;;;;;;5107130;28;20206;-80
2021/06/19 10:33:27;;;;;;;2.88;2.10;;;18.90;99.90;;;;;;5106256;28;20761;-80
2021/06/19 10:35:56;;;;;;;3.70;2.47;;;18.90;99.90;;;;;;5106936;28;20203;-82
2021/06/19 10:38:23;;;;;;;4.03;2.72;;;18.90;99.90;;;;;;5105428;28;20204;-80
2021/06/19 10:40:54;;;;;;;6.00;2.80;;;18.90;99.90;;;;;;5106448;28;20211;-81
2021/06/19 10:43:22;;;;;;;4.65;3.42;;;18.90;99.90;;;;;;5106059;28;20196;-81
2021/06/19 10:45:49;;;;;;;3.53;2.90;;;18.90;99.90;;;;;;5096651;28;20224;-81
2021/06/19 10:48:18;;;;;;;3.45;3.15;;;18.90;99.90;;;;;;5104516;28;20200;-79
2021/06/19 10:50:47;;;;;;;3.50;3.20;;;19.00;99.90;;;;;;5105963;28;20203;-80
2021/06/19 10:53:16;;;;;;;3.63;2.90;;;19.00;99.90;;;;;;5101570;28;20208;-78
2021/06/19 10:55:55;;;;;;;3.70;3.40;;;19.00;99.90;;;;;;5085197;28;20227;-81
2021/06/19 10:58:24;;;;;;;4.60;3.65;;;19.00;99.90;;;;;;5085051;28;20192;-78
2021/06/19 11:00:52;;;;;;;3.60;3.30;;;19.00;99.90;;;;;;5094961;28;20298;-77
2021/06/19 11:03:47;;;;;;;5.07;4.57;;;19.00;99.90;;;;;;5105404;28;20207;-81
2021/06/19 11:06:25;;;;;;;4.65;4.10;;;19.00;99.90;;;;;;5101093;28;20296;-80
2021/06/19 11:09:00;;;;;;;7.10;4.70;;;19.10;99.90;;;;;;5084391;28;20204;-76
2021/06/19 11:11:49;;;;;;;5.88;4.13;;;19.10;99.90;;;;;;5085318;28;20247;-77
2021/06/19 11:14:52;;;;;;;7.22;4.85;;;19.10;99.90;;;;;;5083815;28;20243;-77
2021/06/19 11:17:45;;;;;;;9.38;4.95;;;19.00;99.90;;;;;;5096074;28;20199;-77
2021/06/19 11:20:29;;;;;;;8.30;4.78;;;19.00;99.90;;;;;;5104647;28;20599;-77
2021/06/19 11:23:03;;;;;;;6.43;4.85;;;18.90;99.90;;;;;;5088731;28;20213;-76
2021/06/19 11:25:51;;;;;;;8.50;4.57;;;18.90;99.90;;;;;;5089044;28;20204;-76
2021/06/19 11:28:30;;;;;;;6.03;3.90;;;18.90;99.90;;;;;;5105120;28;20239;-77
2021/06/19 11:31:19;;;;;;;7.60;6.28;;;18.90;99.90;;;;;;5105238;28;20298;-79
2021/06/19 11:33:55;;;;;;;6.75;4.47;;;19.00;99.90;;;;;;5092988;28;20261;-78
2021/06/19 11:36:32;;;;;;;8.02;5.80;;;18.90;99.90;;;;;;5084637;28;20201;-79
2021/06/19 11:39:08;;;;;;;10.00;6.53;;;18.90;99.90;;;;;;5089803;28;20203;-82
2021/06/19 11:41:41;;;;;;;6.30;5.30;;;18.90;99.90;;;;;;5104672;28;20268;-78
2021/06/19 11:44:16;;;;;;;5.63;5.03;;;18.90;99.90;;;;;;5105357;28;20200;-78
2021/06/19 11:46:55;;;;;;;5.60;5.10;;;18.90;99.90;;;;;;5106169;28;20250;-80
2021/06/19 11:49:26;;;;;;;6.05;5.18;;;18.90;99.90;;;;;;5104499;28;20845;-77
2021/06/19 11:51:55;;;;;;;5.18;4.68;;;18.80;99.90;;;;;;5105779;28;20198;-79
2021/06/19 11:54:24;;;;;;;5.72;4.15;;;18.70;99.90;;;;;;5105303;28;20218;-83
2021/06/19 11:56:51;;;;;;;6.35;5.47;;;18.80;99.90;;;;;;5105238;28;20219;-83
2021/06/19 11:59:18;;;;;;;7.78;5.43;;;18.80;99.90;;;;;;5104074;28;20208;-83
2021/06/19 12:01:47;;;;;;;6.20;5.60;;;18.80;99.90;;;;;;5104097;28;20211;-79
2021/06/19 12:04:15;;;;;;;6.18;5.30;;;18.80;99.90;;;;;;5104326;28;20199;-78
2021/06/19 12:06:43;;;;;;;8.45;5.30;;;18.80;99.90;;;;;;5104629;28;20220;-78
2021/06/19 12:09:15;;;;;;;7.10;5.70;;;18.90;99.90;;;;;;5102665;28;20199;-79
2021/06/19 12:11:43;;;;;;;7.40;6.65;;;18.90;99.90;;;;;;5103509;28;20603;-78
2021/06/19 12:14:19;;;;;;;10.93;7.90;;;19.00;99.90;;;;;;5103921;28;20243;-81
2021/06/19 12:16:49;;;;;;;6.65;5.88;;;19.00;99.90;;;;;;5091250;28;20208;-82
2021/06/19 12:19:18;;;;;;;7.22;5.53;;;19.00;99.90;;;;;;5090993;28;20200;-83
2021/06/19 12:21:46;;;;;;;5.57;4.90;;;19.10;99.90;;;;;;5104702;28;20192;-81
2021/06/19 12:24:26;;;;;;;5.55;4.82;;;19.20;99.90;;;;;;5104287;28;20600;-82
2021/06/19 12:27:01;;;;;;;4.72;4.20;;;19.30;99.90;;;;;;5104117;28;20936;-81
2021/06/19 12:29:32;;;;;;;5.32;4.82;;;19.30;99.90;;;;;;5087038;28;20211;-80
2021/06/19 12:31:59;;;;;;;4.20;3.90;;;19.40;99.90;;;;;;5082938;28;20192;-79
2021/06/19 12:34:28;;;;;;;4.30;3.90;;;19.50;99.90;;;;;;5082887;28;20197;-79
2021/06/19 12:36:56;;;;;;;3.90;3.60;;;19.60;99.90;;;;;;5083071;28;20201;-78
2021/06/19 12:39:26;;;;;;;4.07;3.78;;;19.50;99.90;;;;;;5083440;28;20201;-79
2021/06/19 12:41:53;;;;;;;3.50;3.20;;;19.50;99.90;;;;;;5091444;28;20211;-80
2021/06/19 12:44:20;;;;;;;3.00;2.80;;;19.50;99.90;;;;;;5103979;28;20238;-83
2021/06/19 12:46:47;;;;;;;3.50;3.20;;;19.50;99.90;;;;;;5103160;28;20219;-83
2021/06/19 12:49:13;;;;;;;4.47;3.83;;;19.30;99.90;;;;;;5103097;28;20210;-81
2021/06/19 12:51:40;;;;;;;4.40;3.80;;;19.20;99.90;;;;;;5103402;28;20655;-78